Time;durP1;ratioP1;P1;durP2;ratioP2;P2;SDS_P1;SDS_P2;PMS_P1;PMS_P2;Temp;Humidity;BMP_temperature;BMP_pressure;BME280_temperature;BME280_humidity;BME280_pressure;Samples;Min_cycle;Max_cycle;Signal;HPM_P1;HPM_P2
2022/04/18 00:00:19;;;;;;;0.30;0.30;;;10.70;52.80;;;11.29;nan;101076.25;4988675;28;21148;-68
2022/04/18 00:02:45;;;;;;;0.30;0.30;;;10.70;52.70;;;11.19;nan;101069.97;4988711;28;21454;-67
2022/04/18 00:05:13;;;;;;;0.30;0.30;;;10.60;52.80;;;11.20;nan;101069.84;4988009;28;20984;-67
2022/04/18 00:07:40;;;;;;;2.77;1.13;;;10.60;53.00;;;11.15;nan;101066.75;5001047;28;20736;-68
2022/04/18 00:10:07;;;;;;;0.30;0.30;;;10.50;53.20;;;11.16;nan;101063.16;4989944;28;20681;-67
2022/04/18 00:12:34;;;;;;;0.97;0.97;;;10.50;53.30;;;11.15;nan;101071.97;4987664;28;20666;-67
2022/04/18 00:15:01;;;;;;;0.40;0.40;;;10.50;53.00;;;11.14;nan;101070.28;4988852;28;21175;-68
2022/04/18 00:17:28;;;;;;;0.30;0.30;;;10.50;53.10;;;11.09;nan;101066.31;4991781;28;20635;-67
2022/04/18 00:19:55;;;;;;;0.30;0.20;;;10.50;53.30;;;11.10;nan;101067.97;4988523;28;21033;-69
2022/04/18 00:22:23;;;;;;;0.30;0.20;;;10.50;53.10;;;11.08;nan;101072.47;4989101;28;21012;-67
2022/04/18 00:24:51;;;;;;;0.30;0.30;;;10.50;53.40;;;11.00;nan;101066.91;4989736;28;20626;-67
2022/04/18 00:27:18;;;;;;;0.30;0.23;;;10.40;53.70;;;10.99;nan;101066.06;4988211;28;20650;-67
2022/04/18 00:29:47;;;;;;;0.30;0.30;;;10.40;53.80;;;10.95;nan;101064.63;4990163;28;20693;-68
2022/04/18 00:32:16;;;;;;;0.30;0.20;;;10.40;54.00;;;10.92;nan;101059.63;4991325;28;21215;-67
2022/04/18 00:34:43;;;;;;;0.30;0.30;;;10.30;54.10;;;10.90;nan;101059.69;4986647;28;20658;-67
2022/04/18 00:37:15;;;;;;;0.30;0.30;;;10.30;54.10;;;10.93;nan;101059.50;4988535;28;20701;-67
2022/04/18 00:39:42;;;;;;;0.30;0.30;;;10.30;53.80;;;10.84;nan;101052.28;5002538;28;20691;-68
2022/04/18 00:42:09;;;;;;;0.30;0.30;;;10.30;54.10;;;10.86;nan;101060.03;4983335;28;20674;-67
2022/04/18 00:44:36;;;;;;;0.30;0.20;;;10.20;54.20;;;10.83;nan;101057.59;4990330;28;20646;-68
2022/04/18 00:47:03;;;;;;;0.30;0.20;;;10.20;54.30;;;10.76;nan;101046.72;4990750;28;20653;-67
2022/04/18 00:49:30;;;;;;;0.30;0.30;;;10.20;54.30;;;10.59;nan;101040.94;5000203;28;20677;-68
2022/04/18 00:51:57;;;;;;;0.30;0.27;;;10.10;54.90;;;10.53;nan;101036.97;5010437;23;20718;-69
2022/04/18 00:54:24;;;;;;;0.30;0.20;;;10.00;55.10;;;10.46;nan;101033.06;4975755;28;21098;-69
2022/04/18 00:56:53;;;;;;;0.30;0.20;;;9.90;55.40;;;10.43;nan;101027.22;4928513;29;20631;-68
2022/04/18 00:59:21;;;;;;;0.30;0.20;;;9.90;55.70;;;10.36;nan;101029.41;4956626;28;20642;-68
2022/04/18 01:01:49;;;;;;;0.30;0.30;;;9.80;56.10;;;10.37;nan;101025.84;4937187;28;20640;-69
2022/04/18 01:04:16;;;;;;;0.30;0.30;;;9.80;56.50;;;10.33;nan;101021.75;4951972;28;20678;-69
2022/04/18 01:06:43;;;;;;;0.30;0.30;;;9.80;56.90;;;10.39;nan;101023.97;4951851;28;20693;-67
2022/04/18 01:09:10;;;;;;;0.30;0.30;;;9.80;57.10;;;10.37;nan;101017.19;4969027;28;20670;-70
2022/04/18 01:11:37;;;;;;;0.30;0.20;;;9.80;57.30;;;10.40;nan;101017.81;4967456;28;20646;-68
2022/04/18 01:14:04;;;;;;;0.30;0.20;;;9.80;57.50;;;10.37;nan;101019.81;4970510;28;20644;-69
2022/04/18 01:16:31;;;;;;;0.30;0.20;;;9.80;58.40;;;10.34;nan;101010.41;4966789;28;20643;-69
2022/04/18 01:18:58;;;;;;;0.30;0.23;;;9.70;57.90;;;10.34;nan;101010.41;4969878;28;20639;-69
2022/04/18 01:21:26;;;;;;;0.30;0.20;;;9.80;58.30;;;10.31;nan;101002.78;4962828;28;20647;-69
2022/04/18 01:23:57;;;;;;;0.30;0.20;;;9.70;58.60;;;10.32;nan;101001.84;4934644;29;20652;-68
2022/04/18 01:29:09;;;;;;;0.30;0.20;;;9.70;58.40;;;10.33;nan;101000.91;4969863;28;20736;-68
2022/04/18 01:31:38;;;;;;;0.30;0.30;;;9.80;58.10;;;10.28;nan;100995.16;4954349;28;20675;-69
2022/04/18 01:34:07;;;;;;;0.30;0.20;;;9.70;57.80;;;10.26;nan;101002.25;4952724;28;21006;-68
2022/04/18 01:36:35;;;;;;;0.30;0.30;;;9.60;57.80;;;10.28;nan;100999.53;4945727;28;20631;-70
2022/04/18 01:39:02;;;;;;;0.30;0.30;;;9.70;58.30;;;10.23;nan;100989.41;4969952;28;20646;-68
2022/04/18 01:41:29;;;;;;;0.30;0.30;;;9.60;57.90;;;10.15;nan;100994.28;4964532;28;21070;-68
2022/04/18 01:43:57;;;;;;;0.30;0.30;;;9.60;57.70;;;10.15;nan;100994.28;4966903;28;20659;-68
2022/04/18 01:46:24;;;;;;;0.30;0.30;;;9.60;57.80;;;10.16;nan;101000.34;4965415;28;20772;-68
2022/04/18 01:48:52;;;;;;;0.30;0.20;;;9.60;57.80;;;10.15;nan;100994.28;4941922;28;20675;-69
2022/04/18 01:51:19;;;;;;;0.30;0.20;;;9.50;57.90;;;10.20;nan;100991.38;4947243;28;21060;-69
2022/04/18 01:53:49;;;;;;;0.30;0.20;;;9.60;57.90;;;10.22;nan;100995.56;4955132;28;21106;-68
2022/04/18 01:56:16;;;;;;;0.30;0.20;;;9.60;58.10;;;10.23;nan;100986.78;4963592;28;20687;-69
2022/04/18 01:58:43;;;;;;;0.30;0.20;;;9.60;58.20;;;10.17;nan;100983.72;4961851;28;20651;-70
2022/04/18 02:01:10;;;;;;;0.33;0.33;;;9.60;58.40;;;10.13;nan;100988.31;4973547;28;21073;-68
2022/04/18 02:03:45;;;;;;;0.30;0.30;;;9.60;58.50;;;10.06;nan;100992.22;4970484;28;20658;-65
2022/04/18 02:06:12;;;;;;;0.30;0.30;;;9.50;58.70;;;10.03;nan;100982.81;4954240;28;21217;-68
2022/04/18 02:08:39;;;;;;;0.30;0.20;;;9.50;58.90;;;9.98;nan;100976.25;4974656;28;20631;-69
2022/04/18 02:11:06;;;;;;;0.30;0.27;;;9.40;59.30;;;10.01;nan;100974.25;4971390;28;21094;-68
2022/04/18 02:13:33;;;;;;;0.30;0.20;;;9.40;59.40;;;9.96;nan;100973.75;4958558;28;20660;-67
2022/04/18 02:16:00;;;;;;;0.70;0.70;;;9.40;59.60;;;9.92;nan;100966.22;4957529;28;20638;-68
2022/04/18 02:18:27;;;;;;;0.30;0.20;;;9.30;59.90;;;9.94;nan;100982.59;4973760;28;20628;-68
2022/04/18 02:20:55;;;;;;;0.30;0.30;;;9.30;60.00;;;9.88;nan;100973.38;4951001;28;20624;-69
2022/04/18 02:23:22;;;;;;;0.30;0.30;;;9.30;60.40;;;9.87;nan;100966.50;4979928;28;20756;-69
2022/04/18 02:25:49;;;;;;;0.30;0.30;;;9.30;60.70;;;9.83;nan;100969.38;4956544;28;20635;-68
2022/04/18 02:28:16;;;;;;;0.30;0.23;;;9.30;60.90;;;9.87;nan;100973.47;4969030;28;20623;-69
2022/04/18 02:30:43;;;;;;;0.30;0.30;;;9.30;61.20;;;9.84;nan;100971.88;4968749;28;21323;-68
2022/04/18 02:33:10;;;;;;;0.30;0.20;;;9.20;61.30;;;9.81;nan;100972.09;4963872;28;21278;-68
2022/04/18 02:35:37;;;;;;;0.30;0.20;;;9.20;61.90;;;9.76;nan;100970.69;4973633;28;20701;-68
2022/04/18 02:38:04;;;;;;;0.30;0.30;;;9.10;62.30;;;9.76;nan;100960.28;4973756;28;20639;-68
2022/04/18 02:40:31;;;;;;;0.30;0.27;;;9.20;62.50;;;9.76;nan;100966.34;4972295;28;20710;-68
2022/04/18 02:42:58;;;;;;;0.30;0.20;;;9.10;62.60;;;9.75;nan;100969.84;4972664;28;21262;-69
2022/04/18 02:45:27;;;;;;;0.30;0.20;;;9.20;62.60;;;9.72;nan;100966.63;4965685;28;20647;-68
2022/04/18 02:47:54;;;;;;;0.30;0.20;;;9.10;62.60;;;9.68;nan;100965.16;4953508;28;20640;-68
2022/04/18 02:50:21;;;;;;;0.30;0.30;;;9.10;62.90;;;9.62;nan;100962.94;4956672;28;20679;-69
2022/04/18 02:52:48;;;;;;;0.30;0.30;;;9.00;63.50;;;9.60;nan;100965.63;4965270;28;20730;-69
2022/04/18 02:55:15;;;;;;;0.30;0.30;;;9.00;63.80;;;9.57;nan;100965.81;4968027;28;20631;-69
2022/04/18 02:57:42;;;;;;;0.30;0.27;;;9.00;63.90;;;9.49;nan;100962.00;4967936;28;20667;-69
2022/04/18 03:00:11;;;;;;;0.30;0.20;;;8.90;64.30;;;9.48;nan;100957.72;4962067;28;20632;-68
2022/04/18 03:02:39;;;;;;;0.20;0.20;;;8.90;64.70;;;9.50;nan;100958.50;4951542;28;20674;-69
2022/04/18 03:05:08;;;;;;;0.30;0.20;;;8.90;64.60;;;9.50;nan;100951.50;4940408;28;20647;-70
2022/04/18 03:07:36;;;;;;;0.30;0.20;;;9.00;64.30;;;9.46;nan;100952.63;4959956;28;20643;-69
2022/04/18 03:10:05;;;;;;;0.30;0.30;;;8.90;64.70;;;9.50;nan;100943.69;4958965;28;20662;-68
2022/04/18 03:12:32;;;;;;;0.30;0.20;;;9.00;67.90;;;9.51;nan;100950.56;4969761;28;20748;-68
2022/04/18 03:14:59;;;;;;;0.20;0.20;;;8.90;65.70;;;9.49;nan;100952.44;4961371;28;20644;-68
2022/04/18 03:17:26;;;;;;;0.37;0.37;;;8.90;66.70;;;9.47;nan;100943.88;4968279;28;20642;-68
2022/04/18 03:19:53;;;;;;;0.30;0.20;;;8.90;67.50;;;9.39;nan;100939.13;4968150;28;20635;-68
2022/04/18 03:22:21;;;;;;;0.30;0.30;;;8.80;67.90;;;9.34;nan;100933.41;4970913;28;20655;-68
2022/04/18 03:24:53;;;;;;;0.30;0.30;;;8.80;68.30;;;9.23;nan;100938.44;4969833;28;20639;-68
2022/04/18 03:27:20;;;;;;;0.30;0.23;;;8.70;69.40;;;9.25;nan;100933.13;4954813;28;20644;-68
2022/04/18 03:29:48;;;;;;;0.40;0.40;;;8.70;70.20;;;9.28;nan;100936.34;4964371;28;20667;-64
2022/04/18 03:32:15;;;;;;;0.30;0.20;;;8.70;71.00;;;9.23;nan;100930.63;4963126;28;20702;-70
2022/04/18 03:34:42;;;;;;;0.30;0.20;;;8.60;71.80;;;9.21;nan;100936.84;4962478;28;20632;-69
2022/04/18 03:39:59;;;;;;;0.20;0.20;;;8.60;74.20;;;9.11;nan;100936.59;4937118;28;20651;-70
2022/04/18 03:42:31;;;;;;;0.63;0.63;;;8.60;75.20;;;9.10;nan;100937.50;4957556;28;20668;-69
2022/04/18 03:45:02;;;;;;;0.20;0.20;;;8.60;76.60;;;9.04;nan;100930.06;4960400;28;20658;-68
2022/04/18 03:47:30;;;;;;;0.40;0.40;;;8.50;79.50;;;8.98;nan;100927.84;4970218;28;20724;-68
2022/04/18 03:49:57;;;;;;;0.20;0.20;;;8.50;81.50;;;8.93;nan;100932.47;4965372;28;20675;-68
2022/04/18 03:52:25;;;;;;;0.30;0.20;;;8.40;83.30;;;8.86;nan;100928.56;4970811;28;21035;-68
2022/04/18 03:54:52;;;;;;;0.30;0.20;;;8.30;84.70;;;8.73;nan;100929.41;4969919;28;20630;-68
2022/04/18 03:57:19;;;;;;;0.23;0.20;;;8.20;85.50;;;8.73;nan;100929.41;4972582;28;20686;-68
2022/04/18 03:59:46;;;;;;;0.20;0.20;;;8.20;86.10;;;8.74;nan;100926.69;4971720;28;20635;-64
2022/04/18 04:02:14;;;;;;;0.30;0.30;;;8.20;86.20;;;8.66;nan;100928.94;4954728;28;20674;-70
2022/04/18 04:04:42;;;;;;;0.20;0.20;;;8.10;86.70;;;8.60;nan;100922.31;4950793;29;20628;-68
2022/04/18 04:07:09;;;;;;;0.20;0.20;;;8.10;87.60;;;8.55;nan;100926.13;4940415;28;20657;-69
2022/04/18 04:09:37;;;;;;;0.30;0.30;;;8.00;88.90;;;8.53;nan;100926.22;4956475;28;20672;-67
2022/04/18 04:12:05;;;;;;;0.20;0.20;;;8.00;90.10;;;8.43;nan;100924.25;4972066;28;20671;-69
2022/04/18 04:14:33;;;;;;;0.20;0.20;;;7.90;90.90;;;8.38;nan;100923.66;4947551;29;21023;-69
2022/04/18 04:17:00;;;;;;;0.40;0.40;;;7.90;91.40;;;8.31;nan;100930.13;4953686;28;21205;-68
2022/04/18 04:19:27;;;;;;;0.20;0.20;;;7.80;92.10;;;8.24;nan;100924.41;4960644;28;21069;-68
2022/04/18 04:21:54;;;;;;;0.20;0.20;;;7.70;93.10;;;8.20;nan;100927.31;4956054;28;20723;-66
2022/04/18 04:24:21;;;;;;;0.27;0.23;;;7.70;92.60;;;8.12;nan;100927.72;4957611;28;20647;-68
2022/04/18 04:26:49;;;;;;;0.40;0.40;;;7.70;93.00;;;8.11;nan;100922.63;4969986;28;20780;-68
2022/04/18 04:29:17;;;;;;;0.30;0.30;;;7.60;93.80;;;8.11;nan;100917.44;4945159;28;21174;-69
2022/04/18 04:31:44;;;;;;;0.30;0.30;;;7.70;94.30;;;8.19;nan;100930.81;4957355;28;20819;-70
2022/04/18 04:34:12;;;;;;;0.20;0.20;;;7.70;94.50;;;7.92;nan;100922.84;4959056;28;20689;-69
2022/04/18 04:36:40;;;;;;;0.97;0.87;;;7.60;94.40;;;8.07;nan;100928.94;4962669;28;20693;-69
2022/04/18 04:39:08;;;;;;;0.30;0.30;;;7.60;94.30;;;8.00;nan;100930.19;4970758;28;21198;-68
2022/04/18 04:41:36;;;;;;;0.20;0.20;;;7.50;95.00;;;7.96;nan;100931.28;4969310;28;20203;-68
2022/04/18 04:44:06;;;;;;;0.30;0.30;;;7.50;96.10;;;7.99;nan;100929.34;4969680;28;20635;-68
2022/04/18 04:46:34;;;;;;;0.20;0.20;;;7.60;95.70;;;7.94;nan;100930.53;4970965;28;21014;-68
2022/04/18 04:49:02;;;;;;;0.30;0.30;;;7.50;95.60;;;7.94;nan;100931.38;4970952;28;20643;-69
2022/04/18 04:51:29;;;;;;;0.30;0.30;;;7.50;95.70;;;8.00;nan;100932.78;4962013;28;20671;-68
2022/04/18 04:53:57;;;;;;;0.20;0.20;;;7.60;95.80;;;8.03;nan;100928.25;4955083;28;20684;-70
2022/04/18 04:56:25;;;;;;;0.20;0.20;;;7.70;96.00;;;8.17;nan;100935.28;4965006;28;20643;-69
2022/04/18 04:58:53;;;;;;;0.87;0.70;;;7.70;95.70;;;8.28;nan;100927.72;4967887;28;21208;-67
2022/04/18 05:01:24;;;;;;;0.20;0.20;;;7.90;95.10;;;8.47;nan;100930.94;4969042;28;20639;-68
2022/04/18 05:03:51;;;;;;;0.20;0.20;;;8.10;94.70;;;8.74;nan;100931.91;4969389;28;21042;-68
2022/04/18 05:06:18;;;;;;;0.30;0.30;;;8.40;94.10;;;9.03;nan;100933.59;4952383;28;20638;-68
2022/04/18 05:08:45;;;;;;;0.20;0.20;;;8.70;93.10;;;9.36;nan;100935.91;4969385;28;20716;-67
2022/04/18 05:11:12;;;;;;;0.20;0.20;;;9.10;92.10;;;9.64;nan;100937.63;4968722;28;20678;-68
2022/04/18 05:13:39;;;;;;;0.30;0.20;;;9.40;90.80;;;9.92;nan;100932.31;4971411;28;20666;-65
2022/04/18 05:16:06;;;;;;;0.73;0.73;;;9.80;89.20;;;10.24;nan;100936.31;4947790;28;20643;-69
2022/04/18 05:18:38;;;;;;;0.20;0.20;;;10.10;87.20;;;10.60;nan;100927.81;4964960;28;20690;-68
2022/04/18 05:21:05;;;;;;;0.20;0.20;;;10.60;84.80;;;10.69;nan;100933.22;4959739;28;21259;-70
2022/04/18 05:23:33;;;;;;;0.20;0.20;;;10.70;83.20;;;10.80;nan;100935.97;4970473;28;20667;-68
2022/04/18 05:26:00;;;;;;;0.20;0.20;;;10.90;81.70;;;10.99;nan;100932.91;4968849;28;20646;-68
2022/04/18 05:28:27;;;;;;;0.20;0.20;;;11.10;80.50;;;11.30;nan;100931.63;4965857;28;20631;-68
2022/04/18 05:30:58;;;;;;;0.30;0.30;;;11.40;79.00;;;11.59;nan;100926.03;4960134;28;20667;-68
2022/04/18 05:33:25;;;;;;;0.30;0.20;;;11.90;76.90;;;11.75;nan;100928.41;4973108;28;20663;-68
2022/04/18 05:35:52;;;;;;;0.30;0.20;;;12.30;74.80;;;11.83;nan;100936.53;4966459;28;21189;-68
2022/04/18 05:38:19;;;;;;;0.30;0.20;;;12.40;73.90;;;12.45;nan;100927.53;4945289;28;20997;-69
2022/04/18 05:40:46;;;;;;;0.30;0.20;;;13.00;72.10;;;12.81;nan;100933.53;4956217;29;21202;-68
2022/04/18 05:43:17;;;;;;;0.30;0.23;;;13.40;69.90;;;13.11;nan;100926.81;4957697;28;20666;-68
2022/04/18 05:45:44;;;;;;;0.30;0.30;;;;;;;13.33;nan;100925.13;4974680;28;20642;-69
2022/04/18 05:48:11;;;;;;;0.40;0.40;;;14.40;65.50;;;14.17;nan;100927.88;4973331;28;20654;-68
2022/04/18 05:50:45;;;;;;;0.30;0.20;;;15.20;64.20;;;14.64;nan;100935.28;4961127;28;20676;-68
2022/04/18 05:53:16;;;;;;;0.30;0.27;;;15.90;62.00;;;15.42;nan;100941.63;4968282;28;20671;-69
2022/04/18 05:55:43;;;;;;;0.30;0.30;;;16.80;59.60;;;15.77;nan;100945.59;4949189;28;20647;-68
2022/04/18 05:58:10;;;;;;;0.30;0.30;;;17.30;57.90;;;15.56;nan;100947.50;4972524;28;20644;-69
2022/04/18 06:00:37;;;;;;;0.30;0.30;;;17.50;56.60;;;16.16;nan;100944.69;4973890;28;20717;-69
2022/04/18 06:03:04;;;;;;;0.30;0.30;;;18.00;55.70;;;16.20;nan;100939.00;4966096;28;20730;-69
2022/04/18 06:05:31;;;;;;;0.30;0.30;;;18.20;54.10;;;16.45;nan;100940.25;4955427;29;20635;-69
2022/04/18 06:07:57;;;;;;;0.30;0.27;;;18.30;53.80;;;16.66;nan;100940.09;4967796;28;20643;-68
2022/04/18 06:10:25;;;;;;;0.30;0.30;;;18.60;53.40;;;16.97;nan;100945.00;4973006;28;20670;-67
2022/04/18 06:12:52;;;;;;;0.30;0.30;;;19.00;52.50;;;17.46;nan;100941.19;4966039;28;20671;-69
2022/04/18 06:15:19;;;;;;;0.30;0.30;;;19.60;50.60;;;18.11;nan;100942.75;4971612;28;21022;-69
2022/04/18 06:17:46;;;;;;;0.30;0.30;;;20.10;50.10;;;18.45;nan;100948.19;4964632;28;20636;-67
2022/04/18 06:20:13;;;;;;;0.50;0.50;;;20.70;48.80;;;19.20;nan;100947.53;4954094;29;20642;-69
2022/04/18 06:22:40;;;;;;;0.30;0.30;;;21.40;47.80;;;19.67;nan;100961.97;4973685;28;20665;-69
2022/04/18 06:25:07;;;;;;;0.30;0.30;;;22.00;46.50;;;20.14;nan;100959.59;4966457;28;20643;-69
2022/04/18 06:27:34;;;;;;;0.30;0.30;;;22.40;45.60;;;21.05;nan;100958.44;4973437;28;20646;-70
2022/04/18 06:30:01;;;;;;;0.30;0.30;;;23.60;44.00;;;21.83;nan;100961.13;4966175;28;20671;-69
2022/04/18 06:32:29;;;;;;;0.30;0.30;;;24.20;42.80;;;22.34;nan;100955.13;4966274;28;20670;-70
2022/04/18 06:34:58;;;;;;;0.30;0.30;;;25.00;41.50;;;23.44;nan;100959.72;4972343;28;20649;-67
2022/04/18 06:37:25;;;;;;;0.30;0.30;;;26.00;40.70;;;23.66;nan;100961.44;4964689;28;20642;-70
2022/04/18 06:39:52;;;;;;;0.40;0.40;;;26.60;39.50;;;24.99;nan;100958.81;4972200;28;20743;-69
2022/04/18 06:42:19;;;;;;;0.70;0.70;;;27.60;39.30;;;26.00;nan;100961.53;4967134;28;21116;-71
2022/04/18 06:44:45;;;;;;;0.30;0.30;;;28.80;37.20;;;26.02;nan;100956.00;4957432;28;20654;-70
2022/04/18 06:47:12;;;;;;;0.30;0.30;;;29.20;36.20;;;26.64;nan;100953.81;4972673;28;21199;-69
2022/04/18 06:49:39;;;;;;;0.40;0.40;;;29.90;35.80;;;27.38;nan;100964.22;4971658;28;20639;-70
2022/04/18 06:52:10;;;;;;;0.40;0.40;;;30.60;35.20;;;28.41;nan;100966.56;4974031;28;21243;-66
2022/04/18 06:54:36;;;;;;;0.40;0.30;;;31.50;34.80;;;29.03;nan;100960.22;4971978;28;20639;-70
2022/04/18 06:57:04;;;;;;;0.40;0.37;;;32.20;34.30;;;29.27;nan;100954.00;4971090;28;20643;-69
2022/04/18 06:59:31;;;;;;;0.40;0.30;;;32.60;33.50;;;29.82;nan;100954.78;4972330;28;20650;-70
2022/04/18 07:02:00;;;;;;;0.40;0.30;;;33.10;33.00;;;29.76;nan;100951.16;4970083;28;20673;-70
2022/04/18 07:04:27;;;;;;;0.30;0.30;;;33.70;32.30;;;29.37;nan;100956.97;4970345;28;20643;-69
2022/04/18 07:06:54;;;;;;;0.40;0.30;;;32.80;32.50;;;29.85;nan;100948.97;4959413;28;20639;-70
2022/04/18 07:09:21;;;;;;;0.40;0.30;;;32.90;32.60;;;30.05;nan;100949.47;4958718;28;20646;-70
2022/04/18 07:11:48;;;;;;;0.40;0.30;;;33.20;32.10;;;30.36;nan;100951.09;4954855;28;20674;-72
2022/04/18 07:14:16;;;;;;;0.37;0.30;;;33.30;31.90;;;30.30;nan;100946.63;4972290;28;20642;-70
2022/04/18 07:16:44;;;;;;;1.13;1.10;;;33.00;31.80;;;29.83;nan;100943.00;4943797;28;20691;-65
2022/04/18 07:19:11;;;;;;;0.40;0.30;;;32.40;32.20;;;29.97;nan;100947.13;4955528;28;20654;-70
2022/04/18 07:21:39;;;;;;;0.40;0.40;;;32.30;32.40;;;29.69;nan;100949.53;4970980;28;20643;-70
2022/04/18 07:24:06;;;;;;;0.30;0.30;;;32.40;31.80;;;30.00;nan;100946.66;4972234;28;20686;-71
2022/04/18 07:26:34;;;;;;;0.40;0.30;;;32.20;31.70;;;29.18;nan;100941.91;4967464;28;20647;-69
2022/04/18 07:29:02;;;;;;;0.33;0.30;;;31.60;32.10;;;29.47;nan;100940.34;4970991;28;20632;-70
2022/04/18 07:31:29;;;;;;;1.03;0.83;;;31.40;32.20;;;29.25;nan;100942.66;4954667;28;21009;-70
2022/04/18 07:33:56;;;;;;;0.30;0.30;;;31.40;31.40;;;29.01;nan;100938.13;4956251;28;20686;-68
2022/04/18 07:36:23;;;;;;;0.30;0.30;;;31.20;31.80;;;29.38;nan;100941.69;4968133;28;20642;-71
2022/04/18 07:38:50;;;;;;;0.37;0.37;;;31.10;31.90;;;29.29;nan;100943.03;4954047;28;20756;-72
2022/04/18 07:41:23;;;;;;;0.90;0.90;;;30.90;31.90;;;29.17;nan;100937.59;4951761;28;21211;-70
2022/04/18 07:43:51;;;;;;;0.60;0.60;;;30.60;32.20;;;28.49;nan;100950.19;4964016;28;20674;-68
2022/04/18 07:46:19;;;;;;;0.30;0.30;;;30.10;32.40;;;28.89;nan;100959.56;4972129;28;20635;-68
2022/04/18 07:48:49;;;;;;;0.30;0.30;;;30.10;32.10;;;28.61;nan;100943.09;4967290;28;20697;-69
2022/04/18 07:51:38;;;;;;;0.30;0.30;;;29.60;32.80;;;28.56;nan;100953.63;4948417;28;21294;-72
2022/04/18 07:54:08;;;;;;;0.70;0.70;;;29.30;33.20;;;27.60;nan;100942.28;4968216;28;20749;-70
2022/04/18 07:56:35;;;;;;;0.40;0.40;;;28.90;32.70;;;27.64;nan;100945.38;4969754;28;20647;-70
2022/04/18 07:59:03;;;;;;;0.30;0.30;;;28.50;33.10;;;27.07;nan;100948.81;4933898;29;20641;-71
2022/04/18 08:01:31;;;;;;;0.30;0.30;;;28.40;32.60;;;27.72;nan;100950.47;4943651;28;20672;-70
2022/04/18 08:04:00;;;;;;;0.30;0.30;;;28.60;32.70;;;28.45;nan;100950.84;4970635;28;20654;-72
2022/04/18 08:06:29;;;;;;;0.30;0.30;;;29.10;33.10;;;28.72;nan;100947.75;4955289;28;20646;-70
2022/04/18 08:08:56;;;;;;;1.50;1.07;;;29.30;32.80;;;29.17;nan;100952.88;4972608;28;20639;-70
2022/04/18 08:11:24;;;;;;;0.30;0.30;;;29.90;31.80;;;28.66;nan;100945.13;4971962;28;21252;-70
2022/04/18 08:13:52;;;;;;;0.40;0.40;;;29.90;31.20;;;28.92;nan;100950.25;4952829;28;21073;-70
2022/04/18 08:16:19;;;;;;;0.50;0.50;;;29.90;31.60;;;29.07;nan;100940.75;4969686;28;20636;-70
2022/04/18 08:18:46;;;;;;;0.30;0.30;;;30.00;31.80;;;29.64;nan;100936.81;4971478;28;20634;-65
2022/04/18 08:21:17;;;;;;;1.93;1.80;;;30.40;31.80;;;30.68;nan;100944.34;4970836;28;20623;-70
2022/04/18 08:23:46;;;;;;;0.30;0.30;;;31.30;30.80;;;31.65;nan;100950.75;4937573;28;20737;-71
2022/04/18 08:26:13;;;;;;;0.40;0.40;;;32.40;30.30;;;31.04;nan;100948.69;4971037;28;21207;-70
2022/04/18 08:28:41;;;;;;;0.33;0.33;;;32.80;29.80;;;32.12;nan;100953.03;4970280;28;20649;-70
2022/04/18 08:31:09;;;;;;;0.40;0.40;;;33.10;29.90;;;31.71;nan;100949.84;4971987;28;20681;-70
2022/04/18 08:33:36;;;;;;;0.50;0.50;;;33.20;29.80;;;31.91;nan;100945.63;4967192;28;20658;-70
2022/04/18 08:36:04;;;;;;;0.70;0.67;;;33.50;30.10;;;31.61;nan;100955.84;4973258;28;20647;-71
2022/04/18 08:38:32;;;;;;;0.40;0.40;;;33.20;30.10;;;31.55;nan;100954.09;4971338;28;20635;-72
2022/04/18 08:41:04;;;;;;;0.40;0.40;;;34.00;29.90;;;32.60;nan;100957.09;4958540;28;20639;-71
2022/04/18 08:43:31;;;;;;;0.73;0.73;;;34.50;30.10;;;31.99;nan;100953.34;4960528;28;20652;-70
2022/04/18 08:45:59;;;;;;;0.90;0.90;;;34.50;29.80;;;32.92;nan;100953.50;4964861;28;20639;-70
2022/04/18 08:54:00;;;;;;;0.60;0.60;;;36.60;29.30;;;33.95;nan;100933.69;4963525;28;20683;-70
2022/04/18 08:56:28;;;;;;;0.40;0.40;;;37.40;28.90;;;33.88;nan;100940.41;4948017;28;20646;-72
2022/04/18 08:58:55;;;;;;;0.43;0.43;;;37.10;28.90;;;34.77;nan;100947.69;4967336;28;20642;-69
2022/04/18 09:01:22;;;;;;;0.40;0.40;;;37.90;28.60;;;35.88;nan;100936.47;4967842;28;20647;-69
2022/04/18 09:03:49;;;;;;;0.40;0.40;;;38.80;28.70;;;35.37;nan;100939.06;4970757;28;20635;-71
2022/04/18 09:06:17;;;;;;;0.40;0.40;;;39.20;28.30;;;37.12;nan;100939.41;4968420;28;21209;-71
2022/04/18 09:08:51;;;;;;;0.40;0.40;;;40.10;28.10;;;37.47;nan;100941.16;4965312;28;20631;-72
2022/04/18 09:11:40;;;;;;;0.40;0.40;;;41.30;27.50;;;37.56;nan;100942.22;4952776;28;20658;-71
2022/04/18 09:14:15;;;;;;;0.40;0.40;;;41.90;27.10;;;37.63;nan;100940.00;4959992;28;20631;-71
2022/04/18 09:16:43;;;;;;;0.50;0.50;;;41.70;27.20;;;38.71;nan;100935.09;4968747;28;21214;-66
2022/04/18 09:19:16;;;;;;;0.70;0.70;;;42.40;27.00;;;39.08;nan;100937.91;4968270;28;20631;-71
2022/04/18 09:21:58;;;;;;;0.40;0.40;;;42.60;27.00;;;38.98;nan;100929.84;4950995;28;20718;-70
2022/04/18 09:24:34;;;;;;;0.40;0.40;;;42.90;27.00;;;40.17;nan;100935.84;4949699;28;20639;-70
2022/04/18 09:27:07;;;;;;;0.50;0.50;;;43.80;26.80;;;40.46;nan;100931.00;4965225;28;20651;-71
2022/04/18 09:29:38;;;;;;;0.50;0.50;;;44.40;26.60;;;40.81;nan;100933.06;4939285;28;20635;-71
2022/04/18 09:32:13;;;;;;;0.50;0.50;;;44.80;26.40;;;40.96;nan;100924.56;4966273;28;21104;-70
2022/04/18 09:34:40;;;;;;;0.50;0.50;;;44.90;26.20;;;39.77;nan;100918.19;4963287;28;20631;-66
2022/04/18 09:37:15;;;;;;;1.33;0.93;;;44.90;26.10;;;41.02;nan;100924.50;4961797;28;20726;-70
2022/04/18 09:39:52;;;;;;;0.43;0.43;;;44.80;26.30;;;40.12;nan;100916.84;4966399;28;21036;-70
2022/04/18 09:42:25;;;;;;;0.47;0.47;;;44.40;26.00;;;40.26;nan;100910.28;4962828;28;21056;-70
2022/04/18 09:44:53;;;;;;;0.50;0.50;;;44.70;26.20;;;39.36;nan;100906.19;4942657;28;20822;-70
2022/04/18 09:47:23;;;;;;;0.40;0.40;;;43.60;26.40;;;40.77;nan;100901.94;4969974;28;20994;-70
2022/04/18 09:49:50;;;;;;;0.43;0.43;;;44.50;26.20;;;41.06;nan;100909.06;4967892;28;20642;-69
2022/04/18 09:52:20;;;;;;;0.50;0.50;;;45.10;26.10;;;41.12;nan;100903.19;4969432;28;20686;-69
2022/04/18 09:54:55;;;;;;;0.50;0.50;;;45.30;25.80;;;41.46;nan;100906.28;4969806;28;20635;-70
2022/04/18 09:57:23;;;;;;;0.40;0.40;;;45.40;25.80;;;42.42;nan;100891.00;4950520;28;20638;-70
2022/04/18 09:59:52;;;;;;;0.50;0.50;;;46.00;25.80;;;42.00;nan;100891.56;4969303;28;20635;-70
2022/04/18 10:02:20;;;;;;;0.50;0.50;;;46.60;25.50;;;42.86;nan;100892.84;4952504;28;20667;-70
2022/04/18 10:04:49;;;;;;;0.50;0.50;;;46.90;25.60;;;43.11;nan;100885.78;4971262;28;20639;-70
2022/04/18 10:07:16;;;;;;;0.50;0.50;;;47.20;25.40;;;43.20;nan;100886.59;4958608;28;20644;-69
2022/04/18 10:09:44;;;;;;;0.50;0.50;;;47.20;25.40;;;41.84;nan;100881.28;4967144;28;20966;-68
2022/04/18 10:12:13;;;;;;;0.50;0.50;;;46.60;25.50;;;41.21;nan;100873.16;4967252;28;20701;-71
2022/04/18 10:14:42;;;;;;;0.50;0.50;;;45.90;25.50;;;40.54;nan;100872.06;4966831;28;20627;-64
2022/04/18 10:17:11;;;;;;;0.40;0.40;;;44.90;25.40;;;37.75;nan;100861.50;4969663;28;20651;-70
2022/04/18 10:20:28;;;;;;;0.40;0.40;;;43.70;25.40;;;36.41;nan;100858.00;4973939;28;21196;-68
2022/04/18 10:23:36;;;;;;;3.70;1.70;;;41.40;25.70;;;35.51;nan;100853.38;4961012;28;20659;-67
2022/04/18 10:26:34;;;;;;;0.60;0.60;;;40.00;26.20;;;35.74;nan;100841.97;4956413;28;20695;-71
2022/04/18 10:29:10;;;;;;;0.40;0.40;;;39.40;26.40;;;34.47;nan;100840.94;4946047;28;20639;-67
2022/04/18 10:31:41;;;;;;;0.40;0.40;;;38.50;26.80;;;32.65;nan;100836.41;4938747;29;20656;-71
2022/04/18 10:34:12;;;;;;;0.40;0.30;;;36.20;27.40;;;31.18;nan;100829.56;4945550;28;20627;-68
2022/04/18 10:36:54;;;;;;;0.40;0.40;;;33.80;28.00;;;29.59;nan;100825.59;4955625;29;21222;-70
2022/04/18 10:39:22;;;;;;;0.40;0.40;;;31.40;28.90;;;27.88;nan;100820.41;4964462;28;20639;-71
2022/04/18 10:41:53;;;;;;;4.00;2.43;;;29.40;29.80;;;27.17;nan;100815.31;4957510;28;20638;-70
2022/04/18 10:44:32;;;;;;;0.40;0.30;;;27.70;30.70;;;26.28;nan;100810.81;4961680;28;20706;-69
2022/04/18 10:47:05;;;;;;;0.40;0.30;;;26.60;31.70;;;25.40;nan;100802.06;4937075;29;21225;-70